sensor_id;sensor_type;location;lat;lon;timestamp;pressure;altitude;pressure_sealevel;temperature;humidity
64827;BME280;51265;53.972;12.286;2023-04-19T00:00:52;102392.69;;;3.12;84.51
64827;BME280;51265;53.972;12.286;2023-04-19T00:03:19;102380.31;;;2.96;84.80
64827;BME280;51265;53.972;12.286;2023-04-19T00:05:45;102383.81;;;2.83;85.20
64827;BME280;51265;53.972;12.286;2023-04-19T00:08:11;102385.91;;;2.74;85.24
64827;BME280;51265;53.972;12.286;2023-04-19T00:10:38;102389.88;;;2.72;85.44
64827;BME280;51265;53.972;12.286;2023-04-19T00:13:05;102388.00;;;2.79;85.17
64827;BME280;51265;53.972;12.286;2023-04-19T00:15:32;102390.94;;;2.84;85.30
64827;BME280;51265;53.972;12.286;2023-04-19T00:18:00;102393.44;;;2.79;85.32
64827;BME280;51265;53.972;12.286;2023-04-19T00:20:26;102395.16;;;2.80;85.43
64827;BME280;51265;53.972;12.286;2023-04-19T00:22:53;102385.94;;;2.81;85.78
64827;BME280;51265;53.972;12.286;2023-04-19T00:25:19;102401.22;;;2.82;85.71
64827;BME280;51265;53.972;12.286;2023-04-19T00:27:45;102399.53;;;2.81;86.50
64827;BME280;51265;53.972;12.286;2023-04-19T00:30:12;102388.00;;;2.72;86.62
64827;BME280;51265;53.972;12.286;2023-04-19T00:32:38;102386.69;;;2.62;87.38
64827;BME280;51265;53.972;12.286;2023-04-19T00:35:05;102397.13;;;2.58;88.08
64827;BME280;51265;53.972;12.286;2023-04-19T00:37:32;102403.84;;;2.62;88.44
64827;BME280;51265;53.972;12.286;2023-04-19T00:39:58;102397.56;;;2.55;89.51
64827;BME280;51265;53.972;12.286;2023-04-19T00:42:25;102407.56;;;2.55;90.33
64827;BME280;51265;53.972;12.286;2023-04-19T00:44:52;102408.03;;;2.65;90.44
64827;BME280;51265;53.972;12.286;2023-04-19T00:47:18;102402.59;;;2.65;91.11
64827;BME280;51265;53.972;12.286;2023-04-19T00:49:45;102416.03;;;2.73;91.46
64827;BME280;51265;53.972;12.286;2023-04-19T00:52:12;102404.94;;;2.68;91.61
64827;BME280;51265;53.972;12.286;2023-04-19T00:54:40;102401.16;;;2.69;92.05
64827;BME280;51265;53.972;12.286;2023-04-19T00:57:08;102406.59;;;2.69;92.66
64827;BME280;51265;53.972;12.286;2023-04-19T00:59:35;102403.03;;;2.68;93.12
64827;BME280;51265;53.972;12.286;2023-04-19T01:02:03;102403.88;;;2.69;93.91
64827;BME280;51265;53.972;12.286;2023-04-19T01:04:29;102405.31;;;2.65;94.80
64827;BME280;51265;53.972;12.286;2023-04-19T01:06:55;102404.66;;;2.63;95.80
64827;BME280;51265;53.972;12.286;2023-04-19T01:09:22;102404.66;;;2.63;96.95
64827;BME280;51265;53.972;12.286;2023-04-19T01:11:49;102398.84;;;2.66;97.81
64827;BME280;51265;53.972;12.286;2023-04-19T01:14:16;102396.75;;;2.68;99.29
64827;BME280;51265;53.972;12.286;2023-04-19T01:16:46;102394.63;;;2.63;99.77
64827;BME280;51265;53.972;12.286;2023-04-19T01:19:13;102387.91;;;2.53;100.00
64827;BME280;51265;53.972;12.286;2023-04-19T01:21:39;102376.13;;;2.39;100.00
64827;BME280;51265;53.972;12.286;2023-04-19T01:24:08;102384.47;;;2.31;100.00
64827;BME280;51265;53.972;12.286;2023-04-19T01:26:34;102381.53;;;2.32;100.00
64827;BME280;51265;53.972;12.286;2023-04-19T01:29:02;102378.59;;;2.34;100.00
64827;BME280;51265;53.972;12.286;2023-04-19T01:31:28;102366.41;;;2.23;100.00
64827;BME280;51265;53.972;12.286;2023-04-19T01:33:55;102371.84;;;2.23;100.00
64827;BME280;51265;53.972;12.286;2023-04-19T01:36:21;102370.41;;;2.27;100.00
64827;BME280;51265;53.972;12.286;2023-04-19T01:38:48;102365.66;;;2.36;100.00
64827;BME280;51265;53.972;12.286;2023-04-19T01:41:15;102364.41;;;2.38;100.00
64827;BME280;51265;53.972;12.286;2023-04-19T01:43:41;102355.84;;;2.41;100.00
64827;BME280;51265;53.972;12.286;2023-04-19T01:46:08;102351.22;;;2.42;100.00
64827;BME280;51265;53.972;12.286;2023-04-19T01:48:37;102345.59;;;2.43;100.00
64827;BME280;51265;53.972;12.286;2023-04-19T01:51:03;102353.34;;;2.46;100.00
64827;BME280;51265;53.972;12.286;2023-04-19T01:53:30;102343.13;;;2.48;100.00
64827;BME280;51265;53.972;12.286;2023-04-19T01:55:56;102342.72;;;2.52;100.00
64827;BME280;51265;53.972;12.286;2023-04-19T01:58:23;102337.28;;;2.52;100.00
64827;BME280;51265;53.972;12.286;2023-04-19T02:00:49;102337.91;;;2.54;100.00
64827;BME280;51265;53.972;12.286;2023-04-19T02:03:15;102331.22;;;2.56;100.00
64827;BME280;51265;53.972;12.286;2023-04-19T02:05:42;102330.38;;;2.56;100.00
64827;BME280;51265;53.972;12.286;2023-04-19T02:08:08;102334.59;;;2.65;100.00
64827;BME280;51265;53.972;12.286;2023-04-19T02:10:35;102334.41;;;2.73;100.00
64827;BME280;51265;53.972;12.286;2023-04-19T02:13:01;102335.66;;;2.70;100.00
64827;BME280;51265;53.972;12.286;2023-04-19T02:15:28;102324.75;;;2.64;100.00
64827;BME280;51265;53.972;12.286;2023-04-19T02:17:54;102322.22;;;2.62;100.00
64827;BME280;51265;53.972;12.286;2023-04-19T02:20:20;102318.88;;;2.67;100.00
64827;BME280;51265;53.972;12.286;2023-04-19T02:22:48;102320.97;;;2.58;100.00
64827;BME280;51265;53.972;12.286;2023-04-19T02:25:14;102321.38;;;2.55;100.00
64827;BME280;51265;53.972;12.286;2023-04-19T02:27:41;102317.63;;;2.56;100.00
64827;BME280;51265;53.972;12.286;2023-04-19T02:30:08;102314.91;;;2.56;100.00
64827;BME280;51265;53.972;12.286;2023-04-19T02:32:34;102321.16;;;2.57;100.00
64827;BME280;51265;53.972;12.286;2023-04-19T02:35:01;102312.56;;;2.53;100.00
64827;BME280;51265;53.972;12.286;2023-04-19T02:37:29;102316.13;;;2.54;100.00
64827;BME280;51265;53.972;12.286;2023-04-19T02:39:56;102317.00;;;2.61;100.00
64827;BME280;51265;53.972;12.286;2023-04-19T02:42:22;102314.69;;;2.58;100.00
64827;BME280;51265;53.972;12.286;2023-04-19T02:44:49;102309.72;;;2.68;100.00
64827;BME280;51265;53.972;12.286;2023-04-19T02:47:15;102317.22;;;2.66;100.00
64827;BME280;51265;53.972;12.286;2023-04-19T02:49:41;102309.72;;;2.68;100.00
64827;BME280;51265;53.972;12.286;2023-04-19T02:52:09;102309.94;;;2.73;100.00
64827;BME280;51265;53.972;12.286;2023-04-19T02:54:38;102304.28;;;2.81;100.00
64827;BME280;51265;53.972;12.286;2023-04-19T02:57:05;102304.28;;;2.88;100.00
64827;BME280;51265;53.972;12.286;2023-04-19T02:59:31;102302.66;;;2.93;100.00
64827;BME280;51265;53.972;12.286;2023-04-19T03:02:00;102295.94;;;3.03;100.00
64827;BME280;51265;53.972;12.286;2023-04-19T03:04:26;102291.34;;;3.10;100.00
64827;BME280;51265;53.972;12.286;2023-04-19T03:06:54;102285.47;;;3.13;100.00
64827;BME280;51265;53.972;12.286;2023-04-19T03:09:21;102287.16;;;3.14;100.00
64827;BME280;51265;53.972;12.286;2023-04-19T03:11:47;102275.22;;;3.08;100.00
64827;BME280;51265;53.972;12.286;2023-04-19T03:14:15;102271.25;;;3.11;100.00
64827;BME280;51265;53.972;12.286;2023-04-19T03:16:41;102262.25;;;3.10;100.00
64827;BME280;51265;53.972;12.286;2023-04-19T03:19:09;102261.81;;;3.13;100.00
64827;BME280;51265;53.972;12.286;2023-04-19T03:21:42;102259.09;;;3.20;100.00
64827;BME280;51265;53.972;12.286;2023-04-19T03:24:08;102257.00;;;3.22;100.00
64827;BME280;51265;53.972;12.286;2023-04-19T03:26:39;102249.03;;;3.27;100.00
64827;BME280;51265;53.972;12.286;2023-04-19T03:29:06;102244.66;;;3.26;100.00
64827;BME280;51265;53.972;12.286;2023-04-19T03:31:40;102234.97;;;3.30;100.00
64827;BME280;51265;53.972;12.286;2023-04-19T03:34:10;102237.72;;;3.30;100.00
64827;BME280;51265;53.972;12.286;2023-04-19T03:36:40;102236.91;;;3.23;100.00
64827;BME280;51265;53.972;12.286;2023-04-19T03:39:07;102234.38;;;3.15;100.00
64827;BME280;51265;53.972;12.286;2023-04-19T03:41:35;102232.28;;;3.17;100.00
64827;BME280;51265;53.972;12.286;2023-04-19T03:44:12;102238.38;;;3.19;100.00
64827;BME280;51265;53.972;12.286;2023-04-19T03:46:42;102239.19;;;3.13;100.00
64827;BME280;51265;53.972;12.286;2023-04-19T03:49:09;102235.22;;;3.15;100.00
64827;BME280;51265;53.972;12.286;2023-04-19T03:51:36;102238.16;;;3.14;100.00
64827;BME280;51265;53.972;12.286;2023-04-19T03:54:03;102241.31;;;3.11;100.00
64827;BME280;51265;53.972;12.286;2023-04-19T03:56:30;102241.06;;;3.12;100.00
64827;BME280;51265;53.972;12.286;2023-04-19T03:58:56;102237.13;;;3.15;100.00
64827;BME280;51265;53.972;12.286;2023-04-19T04:01:23;102234.38;;;3.15;100.00
64827;BME280;51265;53.972;12.286;2023-04-19T04:03:51;102237.72;;;3.04;100.00
64827;BME280;51265;53.972;12.286;2023-04-19T04:06:18;102237.31;;;3.07;100.00
64827;BME280;51265;53.972;12.286;2023-04-19T04:08:45;102242.75;;;3.00;100.00
64827;BME280;51265;53.972;12.286;2023-04-19T04:11:12;102245.28;;;3.02;100.00
64827;BME280;51265;53.972;12.286;2023-04-19T04:13:39;102247.78;;;3.03;100.00
64827;BME280;51265;53.972;12.286;2023-04-19T04:16:11;102250.72;;;3.02;100.00
64827;BME280;51265;53.972;12.286;2023-04-19T04:18:38;102248.63;;;3.04;100.00
64827;BME280;51265;53.972;12.286;2023-04-19T04:21:08;102249.03;;;3.00;100.00
64827;BME280;51265;53.972;12.286;2023-04-19T04:23:37;102252.41;;;3.03;100.00
64827;BME280;51265;53.972;12.286;2023-04-19T04:26:06;102251.53;;;3.09;100.00
64827;BME280;51265;53.972;12.286;2023-04-19T04:28:56;102251.53;;;3.09;100.00
64827;BME280;51265;53.972;12.286;2023-04-19T04:31:22;102255.53;;;3.13;100.00
64827;BME280;51265;53.972;12.286;2023-04-19T04:33:49;102256.16;;;3.21;100.00
64827;BME280;51265;53.972;12.286;2023-04-19T04:36:20;102267.91;;;3.22;100.00
64827;BME280;51265;53.972;12.286;2023-04-19T04:38:48;102259.94;;;3.27;100.00
64827;BME280;51265;53.972;12.286;2023-04-19T04:41:14;102265.78;;;3.37;100.00
64827;BME280;51265;53.972;12.286;2023-04-19T04:43:41;102255.94;;;3.43;100.00
64827;BME280;51265;53.972;12.286;2023-04-19T04:46:09;102250.50;;;3.36;100.00
64827;BME280;51265;53.972;12.286;2023-04-19T04:48:40;102244.41;;;3.34;100.00
64827;BME280;51265;53.972;12.286;2023-04-19T04:51:06;102254.47;;;3.40;100.00
64827;BME280;51265;53.972;12.286;2023-04-19T04:53:34;102246.09;;;3.48;100.00
64827;BME280;51265;53.972;12.286;2023-04-19T04:56:04;102249.00;;;3.60;100.00
64827;BME280;51265;53.972;12.286;2023-04-19T04:58:31;102239.31;;;3.71;100.00
64827;BME280;51265;53.972;12.286;2023-04-19T05:01:01;102238.47;;;3.77;100.00
64827;BME280;51265;53.972;12.286;2023-04-19T05:03:30;102243.25;;;3.88;100.00
64827;BME280;51265;53.972;12.286;2023-04-19T05:05:59;102234.22;;;3.94;100.00
64827;BME280;51265;53.972;12.286;2023-04-19T05:08:27;102228.94;;;3.99;100.00
64827;BME280;51265;53.972;12.286;2023-04-19T05:10:58;102232.06;;;4.10;100.00
64827;BME280;51265;53.972;12.286;2023-04-19T05:13:28;102227.41;;;4.17;100.00
64827;BME280;51265;53.972;12.286;2023-04-19T05:15:55;102225.66;;;4.29;100.00
64827;BME280;51265;53.972;12.286;2023-04-19T05:18:21;102221.44;;;4.40;100.00
64827;BME280;51265;53.972;12.286;2023-04-19T05:20:48;102221.38;;;4.46;100.00
64827;BME280;51265;53.972;12.286;2023-04-19T05:23:19;102212.31;;;4.53;100.00
64827;BME280;51265;53.972;12.286;2023-04-19T05:25:47;102218.91;;;4.70;100.00
64827;BME280;51265;53.972;12.286;2023-04-19T05:28:14;102208.59;;;4.72;100.00
64827;BME280;51265;53.972;12.286;2023-04-19T05:31:04;102202.59;;;4.88;99.94
64827;BME280;51265;53.972;12.286;2023-04-19T05:33:35;102189.13;;;4.93;99.29
64827;BME280;51265;53.972;12.286;2023-04-19T05:36:01;102202.00;;;5.11;98.64
64827;BME280;51265;53.972;12.286;2023-04-19T05:38:28;102188.88;;;5.20;97.67
64827;BME280;51265;53.972;12.286;2023-04-19T05:40:57;102186.66;;;5.35;96.75
64827;BME280;51265;53.972;12.286;2023-04-19T05:43:23;102173.72;;;5.42;95.98
64827;BME280;51265;53.972;12.286;2023-04-19T05:45:50;102158.34;;;5.48;95.17
64827;BME280;51265;53.972;12.286;2023-04-19T05:48:16;102160.28;;;5.59;94.20
64827;BME280;51265;53.972;12.286;2023-04-19T05:51:12;102154.66;;;5.72;93.74
64827;BME280;51265;53.972;12.286;2023-04-19T05:53:59;102144.88;;;5.83;92.39
64827;BME280;51265;53.972;12.286;2023-04-19T05:56:26;102153.75;;;5.97;91.66
64827;BME280;51265;53.972;12.286;2023-04-19T05:58:52;102136.53;;;5.96;90.23
64827;BME280;51265;53.972;12.286;2023-04-19T06:01:22;102131.09;;;6.08;89.71
64827;BME280;51265;53.972;12.286;2023-04-19T06:03:49;102132.22;;;6.19;88.94
64827;BME280;51265;53.972;12.286;2023-04-19T06:06:20;102119.25;;;6.26;88.41
64827;BME280;51265;53.972;12.286;2023-04-19T06:08:47;102119.53;;;6.36;88.25
64827;BME280;51265;53.972;12.286;2023-04-19T06:11:13;102114.56;;;6.45;88.16
64827;BME280;51265;53.972;12.286;2023-04-19T06:13:41;102105.19;;;6.53;87.35
64827;BME280;51265;53.972;12.286;2023-04-19T06:16:08;102094.94;;;6.60;86.32
64827;BME280;51265;53.972;12.286;2023-04-19T06:18:35;102068.16;;;6.62;84.88
64827;BME280;51265;53.972;12.286;2023-04-19T06:21:01;102068.53;;;6.54;84.30
64827;BME280;51265;53.972;12.286;2023-04-19T06:23:28;102068.91;;;6.69;83.81
64827;BME280;51265;53.972;12.286;2023-04-19T06:25:54;102059.25;;;6.78;83.48
64827;BME280;51265;53.972;12.286;2023-04-19T06:28:20;102049.13;;;6.79;83.02
64827;BME280;51265;53.972;12.286;2023-04-19T06:30:47;102054.97;;;6.82;83.75
64827;BME280;51265;53.972;12.286;2023-04-19T06:33:14;102033.88;;;6.83;82.63
64827;BME280;51265;53.972;12.286;2023-04-19T06:35:40;102032.06;;;6.88;81.70
64827;BME280;51265;53.972;12.286;2023-04-19T06:38:21;102026.72;;;6.93;81.31
64827;BME280;51265;53.972;12.286;2023-04-19T06:40:50;102021.56;;;7.09;81.05
64827;BME280;51265;53.972;12.286;2023-04-19T06:43:16;102002.03;;;7.05;80.12
64827;BME280;51265;53.972;12.286;2023-04-19T06:45:42;102007.50;;;7.17;79.80
64827;BME280;51265;53.972;12.286;2023-04-19T06:48:09;102016.53;;;7.29;79.78
64827;BME280;51265;53.972;12.286;2023-04-19T06:50:41;102000.53;;;7.38;79.83
64827;BME280;51265;53.972;12.286;2023-04-19T06:53:07;101999.31;;;7.45;78.71
64827;BME280;51265;53.972;12.286;2023-04-19T06:55:33;101991.16;;;7.51;78.65
64827;BME280;51265;53.972;12.286;2023-04-19T06:58:00;101985.91;;;7.61;78.53
64827;BME280;51265;53.972;12.286;2023-04-19T07:00:26;101968.94;;;7.64;77.58
64827;BME280;51265;53.972;12.286;2023-04-19T07:02:52;101957.47;;;7.67;77.46
64827;BME280;51265;53.972;12.286;2023-04-19T07:05:19;101968.03;;;7.75;77.81
64827;BME280;51265;53.972;12.286;2023-04-19T07:07:45;101943.38;;;7.75;76.79
64827;BME280;51265;53.972;12.286;2023-04-19T07:10:11;101937.88;;;7.92;76.67
64827;BME280;51265;53.972;12.286;2023-04-19T07:12:38;101941.94;;;7.89;76.51
64827;BME280;51265;53.972;12.286;2023-04-19T07:15:04;101930.91;;;7.84;76.61
64827;BME280;51265;53.972;12.286;2023-04-19T07:17:33;101922.44;;;8.03;75.71
64827;BME280;51265;53.972;12.286;2023-04-19T07:20:00;101903.03;;;8.09;74.81
64827;BME280;51265;53.972;12.286;2023-04-19T07:22:26;101889.66;;;8.13;74.14
64827;BME280;51265;53.972;12.286;2023-04-19T07:24:53;101873.75;;;8.15;73.42
64827;BME280;51265;53.972;12.286;2023-04-19T07:27:23;101862.72;;;8.10;72.80
64827;BME280;51265;53.972;12.286;2023-04-19T07:29:51;101866.19;;;8.22;72.44
64827;BME280;51265;53.972;12.286;2023-04-19T07:32:17;101874.66;;;8.37;72.91
64827;BME280;51265;53.972;12.286;2023-04-19T07:34:43;101834.66;;;8.24;72.10
64827;BME280;51265;53.972;12.286;2023-04-19T07:37:14;101841.63;;;8.32;71.85
64827;BME280;51265;53.972;12.286;2023-04-19T07:39:41;101833.06;;;8.45;71.46
64827;BME280;51265;53.972;12.286;2023-04-19T07:42:07;101812.09;;;8.39;70.45
64827;BME280;51265;53.972;12.286;2023-04-19T07:44:33;101842.00;;;8.58;71.68
64827;BME280;51265;53.972;12.286;2023-04-19T07:47:00;101861.03;;;8.86;71.93
64827;BME280;51265;53.972;12.286;2023-04-19T07:49:26;101829.78;;;8.97;70.58
64827;BME280;51265;53.972;12.286;2023-04-19T07:51:54;101807.81;;;8.97;70.25
64827;BME280;51265;53.972;12.286;2023-04-19T07:54:20;101790.72;;;8.90;69.84
64827;BME280;51265;53.972;12.286;2023-04-19T07:56:46;101765.53;;;8.71;68.59
64827;BME280;51265;53.972;12.286;2023-04-19T07:59:13;101760.34;;;8.75;68.68
64827;BME280;51265;53.972;12.286;2023-04-19T08:01:40;101767.09;;;8.94;68.29
64827;BME280;51265;53.972;12.286;2023-04-19T08:04:07;101755.56;;;8.92;68.17
64827;BME280;51265;53.972;12.286;2023-04-19T08:06:33;101749.00;;;8.98;67.49
64827;BME280;51265;53.972;12.286;2023-04-19T08:08:59;101797.69;;;9.30;69.24
64827;BME280;51265;53.972;12.286;2023-04-19T08:11:26;101767.47;;;9.35;68.54
64827;BME280;51265;53.972;12.286;2023-04-19T08:13:52;101705.63;;;9.01;66.42
64827;BME280;51265;53.972;12.286;2023-04-19T08:16:18;101709.00;;;9.08;66.33
64827;BME280;51265;53.972;12.286;2023-04-19T08:18:45;101719.03;;;9.24;66.13
64827;BME280;51265;53.972;12.286;2023-04-19T08:21:11;101709.88;;;9.18;66.52
64827;BME280;51265;53.972;12.286;2023-04-19T08:23:38;101706.47;;;9.38;66.11
64827;BME280;51265;53.972;12.286;2023-04-19T08:26:04;101688.00;;;9.29;66.25
64827;BME280;51265;53.972;12.286;2023-04-19T08:28:31;101683.91;;;9.36;65.92
64827;BME280;51265;53.972;12.286;2023-04-19T08:30:57;101663.97;;;9.14;65.19
64827;BME280;51265;53.972;12.286;2023-04-19T08:33:24;101658.91;;;9.01;65.93
64827;BME280;51265;53.972;12.286;2023-04-19T08:35:51;101689.66;;;9.30;66.31
64827;BME280;51265;53.972;12.286;2023-04-19T08:38:17;101672.34;;;9.34;65.81
64827;BME280;51265;53.972;12.286;2023-04-19T08:40:46;101679.00;;;9.43;65.97
64827;BME280;51265;53.972;12.286;2023-04-19T08:43:18;101696.22;;;9.66;66.44
64827;BME280;51265;53.972;12.286;2023-04-19T08:45:49;101653.03;;;9.71;65.04
64827;BME280;51265;53.972;12.286;2023-04-19T08:48:16;101598.75;;;9.52;63.63
64827;BME280;51265;53.972;12.286;2023-04-19T08:50:43;101630.69;;;9.58;64.09
64827;BME280;51265;53.972;12.286;2023-04-19T08:53:14;101623.00;;;9.60;64.07
64827;BME280;51265;53.972;12.286;2023-04-19T08:55:42;101617.50;;;9.60;63.96
64827;BME280;51265;53.972;12.286;2023-04-19T08:58:08;101647.31;;;9.78;65.04
64827;BME280;51265;53.972;12.286;2023-04-19T09:00:37;101619.19;;;9.71;64.41
64827;BME280;51265;53.972;12.286;2023-04-19T09:03:06;101629.72;;;9.94;64.22
64827;BME280;51265;53.972;12.286;2023-04-19T09:05:33;101582.84;;;9.64;63.26
64827;BME280;51265;53.972;12.286;2023-04-19T09:08:27;101613.19;;;9.84;63.76
64827;BME280;51265;53.972;12.286;2023-04-19T09:10:59;101615.19;;;10.09;63.67
64827;BME280;51265;53.972;12.286;2023-04-19T09:13:27;101597.88;;;10.19;62.56
64827;BME280;51265;53.972;12.286;2023-04-19T09:15:54;101588.53;;;10.20;62.71
64827;BME280;51265;53.972;12.286;2023-04-19T09:18:27;101573.09;;;10.24;62.39
64827;BME280;51265;53.972;12.286;2023-04-19T09:20:53;101594.06;;;10.35;63.19
64827;BME280;51265;53.972;12.286;2023-04-19T09:23:24;101597.97;;;10.50;62.69
64827;BME280;51265;53.972;12.286;2023-04-19T09:28:17;101544.22;;;10.57;61.26
64827;BME280;51265;53.972;12.286;2023-04-19T09:30:43;101554.97;;;10.38;61.44
64827;BME280;51265;53.972;12.286;2023-04-19T09:33:10;101590.25;;;10.67;62.44
64827;BME280;51265;53.972;12.286;2023-04-19T09:35:45;101553.31;;;10.42;61.57
64827;BME280;51265;53.972;12.286;2023-04-19T09:38:14;101535.69;;;10.59;61.22
64827;BME280;51265;53.972;12.286;2023-04-19T09:40:41;101551.66;;;10.72;61.55
64827;BME280;51265;53.972;12.286;2023-04-19T09:43:07;101545.59;;;10.65;61.40
64827;BME280;51265;53.972;12.286;2023-04-19T09:45:43;101573.13;;;10.85;61.81
64827;BME280;51265;53.972;12.286;2023-04-19T09:48:11;101570.06;;;11.07;61.67
64827;BME280;51265;53.972;12.286;2023-04-19T09:50:59;101538.88;;;11.22;60.38
64827;BME280;51265;53.972;12.286;2023-04-19T09:53:28;101543.84;;;11.15;60.87
64827;BME280;51265;53.972;12.286;2023-04-19T09:55:55;101526.75;;;11.18;60.23
64827;BME280;51265;53.972;12.286;2023-04-19T09:58:22;101499.16;;;11.23;58.93
64827;BME280;51265;53.972;12.286;2023-04-19T10:00:48;101447.72;;;10.93;56.80
64827;BME280;51265;53.972;12.286;2023-04-19T10:03:18;101494.78;;;11.12;58.81
64827;BME280;51265;53.972;12.286;2023-04-19T10:05:45;101494.47;;;11.29;58.31
64827;BME280;51265;53.972;12.286;2023-04-19T10:08:12;101425.38;;;11.00;56.69
64827;BME280;51265;53.972;12.286;2023-04-19T10:10:39;101445.22;;;11.02;57.41
64827;BME280;51265;53.972;12.286;2023-04-19T10:13:10;101449.00;;;11.21;57.33
64827;BME280;51265;53.972;12.286;2023-04-19T10:15:38;101448.66;;;11.77;55.87
64827;BME280;51265;53.972;12.286;2023-04-19T10:18:07;101418.28;;;11.77;55.09
64827;BME280;51265;53.972;12.286;2023-04-19T10:20:58;101448.06;;;11.85;56.75
64827;BME280;51265;53.972;12.286;2023-04-19T10:23:26;101483.50;;;12.41;57.16
64827;BME280;51265;53.972;12.286;2023-04-19T10:25:55;101437.44;;;12.03;55.88
64827;BME280;51265;53.972;12.286;2023-04-19T10:28:28;101387.50;;;12.28;53.36
64827;BME280;51265;53.972;12.286;2023-04-19T10:31:00;101345.38;;;12.41;51.57
64827;BME280;51265;53.972;12.286;2023-04-19T10:33:29;101417.56;;;13.07;52.76
64827;BME280;51265;53.972;12.286;2023-04-19T10:35:58;101379.44;;;13.04;52.07
64827;BME280;51265;53.972;12.286;2023-04-19T10:41:02;101344.16;;;12.95;51.33
64827;BME280;51265;53.972;12.286;2023-04-19T10:43:30;101310.53;;;12.88;50.41
64827;BME280;51265;53.972;12.286;2023-04-19T10:46:06;101302.03;;;12.61;50.77
64827;BME280;51265;53.972;12.286;2023-04-19T10:48:35;101290.72;;;12.38;50.86
64827;BME280;51265;53.972;12.286;2023-04-19T10:53:58;101251.13;;;12.00;50.93
64827;BME280;51265;53.972;12.286;2023-04-19T11:01:43;101270.84;;;12.36;50.74
64827;BME280;51265;53.972;12.286;2023-04-19T11:07:02;101211.78;;;12.13;48.38
64827;BME280;51265;53.972;12.286;2023-04-19T11:12:10;101199.47;;;12.25;48.30
64827;BME280;51265;53.972;12.286;2023-04-19T11:14:44;101202.03;;;12.40;48.07
64827;BME280;51265;53.972;12.286;2023-04-19T11:17:23;101248.50;;;12.94;48.21
64827;BME280;51265;53.972;12.286;2023-04-19T11:20:00;101176.19;;;12.87;46.56
64827;BME280;51265;53.972;12.286;2023-04-19T11:22:39;101151.56;;;12.53;46.14
64827;BME280;51265;53.972;12.286;2023-04-19T11:25:06;101196.06;;;12.89;47.03
64827;BME280;51265;53.972;12.286;2023-04-19T11:27:33;101206.25;;;13.08;47.12
64827;BME280;51265;53.972;12.286;2023-04-19T11:30:18;101167.88;;;12.87;46.37
64827;BME280;51265;53.972;12.286;2023-04-19T11:32:55;101096.53;;;12.19;45.42
64827;BME280;51265;53.972;12.286;2023-04-19T11:35:27;101084.91;;;12.22;45.47
64827;BME280;51265;53.972;12.286;2023-04-19T11:37:55;101101.19;;;12.42;45.24
64827;BME280;51265;53.972;12.286;2023-04-19T11:40:22;101081.06;;;12.56;44.35
64827;BME280;51265;53.972;12.286;2023-04-19T11:43:00;101063.31;;;12.24;45.20
64827;BME280;51265;53.972;12.286;2023-04-19T11:45:32;101076.47;;;12.32;44.88
64827;BME280;51265;53.972;12.286;2023-04-19T11:47:59;101147.78;;;13.01;45.50
64827;BME280;51265;53.972;12.286;2023-04-19T11:50:29;101147.88;;;13.28;45.20
64827;BME280;51265;53.972;12.286;2023-04-19T11:52:57;101171.53;;;13.67;45.00
64827;BME280;51265;53.972;12.286;2023-04-19T11:55:23;101177.03;;;13.94;45.05
64827;BME280;51265;53.972;12.286;2023-04-19T11:57:50;101104.47;;;13.42;44.88
64827;BME280;51265;53.972;12.286;2023-04-19T12:00:26;101101.38;;;13.58;44.25
64827;BME280;51265;53.972;12.286;2023-04-19T12:02:53;101063.47;;;13.44;43.52
64827;BME280;51265;53.972;12.286;2023-04-19T12:05:19;101056.59;;;12.95;43.81
64827;BME280;51265;53.972;12.286;2023-04-19T12:08:06;101057.78;;;13.22;43.55
64827;BME280;51265;53.972;12.286;2023-04-19T12:10:36;100989.44;;;12.81;42.74
64827;BME280;51265;53.972;12.286;2023-04-19T12:13:31;100983.31;;;12.84;41.90
64827;BME280;51265;53.972;12.286;2023-04-19T12:15:59;100947.44;;;12.65;41.46
64827;BME280;51265;53.972;12.286;2023-04-19T12:18:25;100926.13;;;12.38;41.63
64827;BME280;51265;53.972;12.286;2023-04-19T12:20:52;100962.59;;;12.68;41.91
64827;BME280;51265;53.972;12.286;2023-04-19T12:23:19;100989.84;;;13.16;41.22
64827;BME280;51265;53.972;12.286;2023-04-19T12:25:47;100998.19;;;13.43;41.67
64827;BME280;51265;53.972;12.286;2023-04-19T12:28:14;100985.44;;;13.70;40.77
64827;BME280;51265;53.972;12.286;2023-04-19T12:30:41;100938.47;;;13.42;41.13
64827;BME280;51265;53.972;12.286;2023-04-19T12:33:08;100926.69;;;13.23;40.77
64827;BME280;51265;53.972;12.286;2023-04-19T12:35:35;100888.25;;;13.08;40.36
64827;BME280;51265;53.972;12.286;2023-04-19T12:38:02;100880.59;;;13.05;40.71
64827;BME280;51265;53.972;12.286;2023-04-19T12:40:29;100898.94;;;13.01;40.65
64827;BME280;51265;53.972;12.286;2023-04-19T12:42:55;100872.31;;;13.05;40.25
64827;BME280;51265;53.972;12.286;2023-04-19T12:45:22;100891.47;;;12.60;41.29
64827;BME280;51265;53.972;12.286;2023-04-19T12:47:48;100944.72;;;12.93;42.22
64827;BME280;51265;53.972;12.286;2023-04-19T12:50:15;101002.28;;;13.60;41.93
64827;BME280;51265;53.972;12.286;2023-04-19T12:52:43;100973.78;;;13.45;42.00
64827;BME280;51265;53.972;12.286;2023-04-19T12:55:09;100931.81;;;13.02;42.29
64827;BME280;51265;53.972;12.286;2023-04-19T12:57:36;100941.09;;;13.20;41.88
64827;BME280;51265;53.972;12.286;2023-04-19T13:00:02;100964.59;;;13.36;42.04
64827;BME280;51265;53.972;12.286;2023-04-19T13:02:33;100917.16;;;13.02;42.35
64827;BME280;51265;53.972;12.286;2023-04-19T13:04:59;100955.06;;;13.42;41.89
64827;BME280;51265;53.972;12.286;2023-04-19T13:07:25;101011.91;;;13.99;42.26